sensor_id;sensor_type;location;lat;lon;timestamp;P1;durP1;ratioP1;P2;durP2;ratioP2
8538;SDS011;4307;53.868;11.680;2024-02-21T00:02:09;29.90;;;12.13;;
8538;SDS011;4307;53.868;11.680;2024-02-21T00:04:35;26.17;;;11.70;;
8538;SDS011;4307;53.868;11.680;2024-02-21T00:07:04;26.47;;;11.47;;
8538;SDS011;4307;53.868;11.680;2024-02-21T00:09:31;24.33;;;11.50;;
8538;SDS011;4307;53.868;11.680;2024-02-21T00:11:58;26.50;;;12.40;;
8538;SDS011;4307;53.868;11.680;2024-02-21T00:14:26;21.33;;;10.43;;
8538;SDS011;4307;53.868;11.680;2024-02-21T00:16:52;30.23;;;12.87;;
8538;SDS011;4307;53.868;11.680;2024-02-21T00:19:19;26.37;;;12.57;;
8538;SDS011;4307;53.868;11.680;2024-02-21T00:21:46;31.47;;;12.30;;
8538;SDS011;4307;53.868;11.680;2024-02-21T00:24:14;30.87;;;12.90;;
8538;SDS011;4307;53.868;11.680;2024-02-21T00:26:41;34.43;;;12.70;;
8538;SDS011;4307;53.868;11.680;2024-02-21T00:29:07;29.87;;;11.40;;
8538;SDS011;4307;53.868;11.680;2024-02-21T00:31:34;30.57;;;13.20;;
8538;SDS011;4307;53.868;11.680;2024-02-21T00:34:01;29.93;;;13.17;;
8538;SDS011;4307;53.868;11.680;2024-02-21T00:36:27;32.97;;;13.93;;
8538;SDS011;4307;53.868;11.680;2024-02-21T00:38:54;37.00;;;14.23;;
8538;SDS011;4307;53.868;11.680;2024-02-21T00:41:22;35.80;;;14.47;;
8538;SDS011;4307;53.868;11.680;2024-02-21T00:43:48;26.47;;;12.23;;
8538;SDS011;4307;53.868;11.680;2024-02-21T00:46:15;33.17;;;13.87;;
8538;SDS011;4307;53.868;11.680;2024-02-21T00:48:41;26.27;;;13.13;;
8538;SDS011;4307;53.868;11.680;2024-02-21T00:51:08;25.53;;;12.33;;
8538;SDS011;4307;53.868;11.680;2024-02-21T00:53:35;24.70;;;12.93;;
8538;SDS011;4307;53.868;11.680;2024-02-21T00:56:03;32.07;;;13.30;;
8538;SDS011;4307;53.868;11.680;2024-02-21T00:58:31;31.07;;;13.27;;
8538;SDS011;4307;53.868;11.680;2024-02-21T01:00:58;31.73;;;13.87;;
8538;SDS011;4307;53.868;11.680;2024-02-21T01:03:26;24.77;;;12.33;;
8538;SDS011;4307;53.868;11.680;2024-02-21T01:05:53;21.77;;;12.00;;
8538;SDS011;4307;53.868;11.680;2024-02-21T01:08:19;29.63;;;12.20;;
8538;SDS011;4307;53.868;11.680;2024-02-21T01:10:46;28.20;;;13.77;;
8538;SDS011;4307;53.868;11.680;2024-02-21T01:13:12;31.70;;;14.80;;
8538;SDS011;4307;53.868;11.680;2024-02-21T01:15:40;32.10;;;13.93;;
8538;SDS011;4307;53.868;11.680;2024-02-21T01:18:07;31.37;;;14.00;;
8538;SDS011;4307;53.868;11.680;2024-02-21T01:20:33;31.80;;;14.90;;
8538;SDS011;4307;53.868;11.680;2024-02-21T01:23:00;36.83;;;15.53;;
8538;SDS011;4307;53.868;11.680;2024-02-21T01:25:27;32.60;;;14.83;;
8538;SDS011;4307;53.868;11.680;2024-02-21T01:27:54;33.20;;;13.93;;
8538;SDS011;4307;53.868;11.680;2024-02-21T01:30:20;29.90;;;14.57;;
8538;SDS011;4307;53.868;11.680;2024-02-21T01:32:48;29.07;;;13.03;;
8538;SDS011;4307;53.868;11.680;2024-02-21T01:35:15;32.83;;;14.30;;
8538;SDS011;4307;53.868;11.680;2024-02-21T01:37:41;33.83;;;14.90;;
8538;SDS011;4307;53.868;11.680;2024-02-21T01:40:08;29.27;;;13.80;;
8538;SDS011;4307;53.868;11.680;2024-02-21T01:42:37;30.60;;;13.30;;
8538;SDS011;4307;53.868;11.680;2024-02-21T01:45:04;32.53;;;13.93;;
8538;SDS011;4307;53.868;11.680;2024-02-21T01:47:31;28.07;;;13.33;;
8538;SDS011;4307;53.868;11.680;2024-02-21T01:49:59;31.43;;;14.00;;
8538;SDS011;4307;53.868;11.680;2024-02-21T01:52:27;29.47;;;14.10;;
8538;SDS011;4307;53.868;11.680;2024-02-21T01:54:55;31.50;;;14.57;;
8538;SDS011;4307;53.868;11.680;2024-02-21T01:57:22;34.47;;;14.43;;
8538;SDS011;4307;53.868;11.680;2024-02-21T01:59:49;36.63;;;14.10;;
8538;SDS011;4307;53.868;11.680;2024-02-21T02:02:16;30.03;;;15.00;;
8538;SDS011;4307;53.868;11.680;2024-02-21T02:04:44;37.50;;;14.23;;
8538;SDS011;4307;53.868;11.680;2024-02-21T02:07:13;38.63;;;15.70;;
8538;SDS011;4307;53.868;11.680;2024-02-21T02:09:39;27.53;;;14.67;;
8538;SDS011;4307;53.868;11.680;2024-02-21T02:12:06;27.40;;;13.30;;
8538;SDS011;4307;53.868;11.680;2024-02-21T02:14:33;35.17;;;15.60;;
8538;SDS011;4307;53.868;11.680;2024-02-21T02:17:00;29.37;;;13.87;;
8538;SDS011;4307;53.868;11.680;2024-02-21T02:19:26;29.33;;;14.53;;
8538;SDS011;4307;53.868;11.680;2024-02-21T02:21:53;30.10;;;15.13;;
8538;SDS011;4307;53.868;11.680;2024-02-21T02:24:27;27.73;;;13.43;;
8538;SDS011;4307;53.868;11.680;2024-02-21T02:26:54;33.73;;;14.03;;
8538;SDS011;4307;53.868;11.680;2024-02-21T02:29:20;31.03;;;14.23;;
8538;SDS011;4307;53.868;11.680;2024-02-21T02:31:48;27.07;;;14.43;;
8538;SDS011;4307;53.868;11.680;2024-02-21T02:34:15;37.50;;;15.37;;
8538;SDS011;4307;53.868;11.680;2024-02-21T02:36:41;32.77;;;15.57;;
8538;SDS011;4307;53.868;11.680;2024-02-21T02:39:08;31.43;;;14.13;;
8538;SDS011;4307;53.868;11.680;2024-02-21T02:41:36;30.43;;;13.00;;
8538;SDS011;4307;53.868;11.680;2024-02-21T02:44:03;38.83;;;15.03;;
8538;SDS011;4307;53.868;11.680;2024-02-21T02:46:29;35.50;;;14.77;;
8538;SDS011;4307;53.868;11.680;2024-02-21T02:48:56;24.13;;;12.77;;
8538;SDS011;4307;53.868;11.680;2024-02-21T02:51:23;32.47;;;13.70;;
8538;SDS011;4307;53.868;11.680;2024-02-21T02:53:49;31.47;;;14.00;;
8538;SDS011;4307;53.868;11.680;2024-02-21T02:56:16;28.17;;;14.30;;
8538;SDS011;4307;53.868;11.680;2024-02-21T02:58:44;29.73;;;13.20;;
8538;SDS011;4307;53.868;11.680;2024-02-21T03:01:11;23.83;;;11.37;;
8538;SDS011;4307;53.868;11.680;2024-02-21T03:03:38;36.10;;;14.83;;
8538;SDS011;4307;53.868;11.680;2024-02-21T03:06:05;27.37;;;13.53;;
8538;SDS011;4307;53.868;11.680;2024-02-21T03:08:31;35.63;;;13.80;;
8538;SDS011;4307;53.868;11.680;2024-02-21T03:10:59;22.07;;;12.83;;
8538;SDS011;4307;53.868;11.680;2024-02-21T03:13:26;29.50;;;14.33;;
8538;SDS011;4307;53.868;11.680;2024-02-21T03:15:54;22.83;;;9.23;;
8538;SDS011;4307;53.868;11.680;2024-02-21T03:18:20;22.70;;;12.30;;
8538;SDS011;4307;53.868;11.680;2024-02-21T03:20:47;21.53;;;11.30;;
8538;SDS011;4307;53.868;11.680;2024-02-21T03:23:13;31.27;;;12.70;;
8538;SDS011;4307;53.868;11.680;2024-02-21T03:25:40;24.17;;;14.07;;
8538;SDS011;4307;53.868;11.680;2024-02-21T03:28:07;26.87;;;13.37;;
8538;SDS011;4307;53.868;11.680;2024-02-21T03:30:33;24.20;;;12.67;;
8538;SDS011;4307;53.868;11.680;2024-02-21T03:33:02;27.43;;;13.13;;
8538;SDS011;4307;53.868;11.680;2024-02-21T03:35:29;28.87;;;13.20;;
8538;SDS011;4307;53.868;11.680;2024-02-21T03:37:55;24.07;;;12.20;;
8538;SDS011;4307;53.868;11.680;2024-02-21T03:40:22;25.03;;;12.13;;
8538;SDS011;4307;53.868;11.680;2024-02-21T03:42:49;25.30;;;12.60;;
8538;SDS011;4307;53.868;11.680;2024-02-21T03:45:15;25.80;;;12.47;;
8538;SDS011;4307;53.868;11.680;2024-02-21T03:47:42;20.47;;;11.17;;
8538;SDS011;4307;53.868;11.680;2024-02-21T03:50:10;22.40;;;11.30;;
8538;SDS011;4307;53.868;11.680;2024-02-21T03:52:37;24.40;;;12.70;;
8538;SDS011;4307;53.868;11.680;2024-02-21T03:55:04;28.60;;;12.73;;
8538;SDS011;4307;53.868;11.680;2024-02-21T03:57:32;25.67;;;13.20;;
8538;SDS011;4307;53.868;11.680;2024-02-21T03:59:59;24.03;;;11.60;;
8538;SDS011;4307;53.868;11.680;2024-02-21T04:02:25;19.53;;;12.27;;
8538;SDS011;4307;53.868;11.680;2024-02-21T04:04:53;22.20;;;12.10;;
8538;SDS011;4307;53.868;11.680;2024-02-21T04:07:21;21.57;;;11.97;;
8538;SDS011;4307;53.868;11.680;2024-02-21T04:09:47;23.80;;;11.53;;
8538;SDS011;4307;53.868;11.680;2024-02-21T04:12:14;25.87;;;12.20;;
8538;SDS011;4307;53.868;11.680;2024-02-21T04:14:40;25.30;;;12.23;;
8538;SDS011;4307;53.868;11.680;2024-02-21T04:17:07;21.23;;;12.60;;
8538;SDS011;4307;53.868;11.680;2024-02-21T04:19:34;27.03;;;13.80;;
8538;SDS011;4307;53.868;11.680;2024-02-21T04:22:00;25.27;;;12.40;;
8538;SDS011;4307;53.868;11.680;2024-02-21T04:24:28;20.00;;;12.67;;
8538;SDS011;4307;53.868;11.680;2024-02-21T04:26:55;26.90;;;13.57;;
8538;SDS011;4307;53.868;11.680;2024-02-21T04:29:21;25.83;;;13.40;;
8538;SDS011;4307;53.868;11.680;2024-02-21T04:31:48;21.80;;;13.13;;
8538;SDS011;4307;53.868;11.680;2024-02-21T04:34:15;31.10;;;14.33;;
8538;SDS011;4307;53.868;11.680;2024-02-21T04:36:41;27.63;;;14.70;;
8538;SDS011;4307;53.868;11.680;2024-02-21T04:39:08;28.07;;;13.87;;
8538;SDS011;4307;53.868;11.680;2024-02-21T04:41:37;27.83;;;14.53;;
8538;SDS011;4307;53.868;11.680;2024-02-21T04:44:04;33.30;;;15.80;;
8538;SDS011;4307;53.868;11.680;2024-02-21T04:46:31;33.80;;;15.37;;
8538;SDS011;4307;53.868;11.680;2024-02-21T04:48:57;29.47;;;14.63;;
8538;SDS011;4307;53.868;11.680;2024-02-21T04:51:24;30.50;;;15.47;;
8538;SDS011;4307;53.868;11.680;2024-02-21T04:53:51;27.63;;;14.57;;
8538;SDS011;4307;53.868;11.680;2024-02-21T04:56:18;32.60;;;16.60;;
8538;SDS011;4307;53.868;11.680;2024-02-21T04:58:46;29.90;;;15.07;;
8538;SDS011;4307;53.868;11.680;2024-02-21T05:01:12;31.33;;;15.90;;
8538;SDS011;4307;53.868;11.680;2024-02-21T05:03:39;27.80;;;16.63;;
8538;SDS011;4307;53.868;11.680;2024-02-21T05:06:05;38.93;;;17.23;;
8538;SDS011;4307;53.868;11.680;2024-02-21T05:08:32;27.17;;;15.23;;
8538;SDS011;4307;53.868;11.680;2024-02-21T05:10:59;27.50;;;15.63;;
8538;SDS011;4307;53.868;11.680;2024-02-21T05:13:26;34.93;;;15.90;;
8538;SDS011;4307;53.868;11.680;2024-02-21T05:15:54;35.57;;;15.40;;
8538;SDS011;4307;53.868;11.680;2024-02-21T05:18:20;36.43;;;16.53;;
8538;SDS011;4307;53.868;11.680;2024-02-21T05:20:47;31.13;;;16.20;;
8538;SDS011;4307;53.868;11.680;2024-02-21T05:23:13;31.17;;;15.97;;
8538;SDS011;4307;53.868;11.680;2024-02-21T05:25:40;27.93;;;14.17;;
8538;SDS011;4307;53.868;11.680;2024-02-21T05:28:07;37.57;;;17.10;;
8538;SDS011;4307;53.868;11.680;2024-02-21T05:30:33;31.50;;;15.73;;
8538;SDS011;4307;53.868;11.680;2024-02-21T05:33:04;32.83;;;16.20;;
8538;SDS011;4307;53.868;11.680;2024-02-21T05:35:32;34.07;;;16.50;;
8538;SDS011;4307;53.868;11.680;2024-02-21T05:37:59;35.87;;;17.00;;
8538;SDS011;4307;53.868;11.680;2024-02-21T05:40:26;31.80;;;17.67;;
8538;SDS011;4307;53.868;11.680;2024-02-21T05:42:53;39.67;;;17.73;;
8538;SDS011;4307;53.868;11.680;2024-02-21T05:45:19;38.07;;;16.87;;
8538;SDS011;4307;53.868;11.680;2024-02-21T05:47:46;38.50;;;16.90;;
8538;SDS011;4307;53.868;11.680;2024-02-21T05:50:14;39.37;;;17.83;;
8538;SDS011;4307;53.868;11.680;2024-02-21T05:52:42;37.10;;;17.27;;
8538;SDS011;4307;53.868;11.680;2024-02-21T05:55:08;31.63;;;16.07;;
8538;SDS011;4307;53.868;11.680;2024-02-21T05:57:35;36.80;;;16.97;;
8538;SDS011;4307;53.868;11.680;2024-02-21T06:00:03;38.10;;;17.00;;
8538;SDS011;4307;53.868;11.680;2024-02-21T06:02:31;40.43;;;17.20;;
8538;SDS011;4307;53.868;11.680;2024-02-21T06:04:57;39.63;;;16.97;;
8538;SDS011;4307;53.868;11.680;2024-02-21T06:07:25;35.00;;;16.93;;
8538;SDS011;4307;53.868;11.680;2024-02-21T06:09:52;34.93;;;16.77;;
8538;SDS011;4307;53.868;11.680;2024-02-21T06:12:19;36.50;;;16.57;;
8538;SDS011;4307;53.868;11.680;2024-02-21T06:14:45;33.83;;;16.20;;
8538;SDS011;4307;53.868;11.680;2024-02-21T06:17:12;41.07;;;17.00;;
8538;SDS011;4307;53.868;11.680;2024-02-21T06:19:39;40.87;;;18.13;;
8538;SDS011;4307;53.868;11.680;2024-02-21T06:22:06;30.53;;;15.53;;
8538;SDS011;4307;53.868;11.680;2024-02-21T06:24:35;14.27;;;6.20;;
8538;SDS011;4307;53.868;11.680;2024-02-21T06:27:02;12.60;;;6.80;;
8538;SDS011;4307;53.868;11.680;2024-02-21T06:29:29;14.17;;;5.63;;
8538;SDS011;4307;53.868;11.680;2024-02-21T06:31:55;6.20;;;2.97;;
8538;SDS011;4307;53.868;11.680;2024-02-21T06:34:22;7.40;;;2.60;;
8538;SDS011;4307;53.868;11.680;2024-02-21T06:36:49;5.07;;;2.70;;
8538;SDS011;4307;53.868;11.680;2024-02-21T06:39:16;6.67;;;2.40;;
8538;SDS011;4307;53.868;11.680;2024-02-21T06:41:44;5.07;;;1.80;;
8538;SDS011;4307;53.868;11.680;2024-02-21T06:44:11;5.70;;;1.80;;
8538;SDS011;4307;53.868;11.680;2024-02-21T06:46:38;7.10;;;2.40;;
8538;SDS011;4307;53.868;11.680;2024-02-21T06:49:05;10.20;;;3.67;;
8538;SDS011;4307;53.868;11.680;2024-02-21T06:51:32;7.17;;;3.33;;
8538;SDS011;4307;53.868;11.680;2024-02-21T06:53:59;7.57;;;3.53;;
8538;SDS011;4307;53.868;11.680;2024-02-21T06:56:27;12.23;;;3.80;;
8538;SDS011;4307;53.868;11.680;2024-02-21T06:58:55;6.60;;;3.70;;
8538;SDS011;4307;53.868;11.680;2024-02-21T07:01:22;7.90;;;3.63;;
8538;SDS011;4307;53.868;11.680;2024-02-21T07:03:48;7.37;;;3.77;;
8538;SDS011;4307;53.868;11.680;2024-02-21T07:06:15;9.87;;;3.20;;
8538;SDS011;4307;53.868;11.680;2024-02-21T07:08:42;9.90;;;2.80;;
8538;SDS011;4307;53.868;11.680;2024-02-21T07:11:09;5.47;;;2.07;;
8538;SDS011;4307;53.868;11.680;2024-02-21T07:13:35;7.37;;;2.03;;
8538;SDS011;4307;53.868;11.680;2024-02-21T07:16:03;5.20;;;1.80;;
8538;SDS011;4307;53.868;11.680;2024-02-21T07:18:31;4.27;;;1.83;;
8538;SDS011;4307;53.868;11.680;2024-02-21T07:20:57;4.20;;;1.60;;
8538;SDS011;4307;53.868;11.680;2024-02-21T07:23:24;3.57;;;2.20;;
8538;SDS011;4307;53.868;11.680;2024-02-21T07:25:51;7.83;;;2.30;;
8538;SDS011;4307;53.868;11.680;2024-02-21T07:28:17;6.83;;;1.73;;
8538;SDS011;4307;53.868;11.680;2024-02-21T07:30:44;6.97;;;1.97;;
8538;SDS011;4307;53.868;11.680;2024-02-21T07:33:12;6.97;;;2.07;;
8538;SDS011;4307;53.868;11.680;2024-02-21T07:35:39;4.47;;;2.23;;
8538;SDS011;4307;53.868;11.680;2024-02-21T07:38:07;2.70;;;1.90;;
8538;SDS011;4307;53.868;11.680;2024-02-21T07:40:37;3.33;;;1.83;;
8538;SDS011;4307;53.868;11.680;2024-02-21T07:43:04;4.27;;;1.77;;
8538;SDS011;4307;53.868;11.680;2024-02-21T07:45:31;2.90;;;1.63;;
8538;SDS011;4307;53.868;11.680;2024-02-21T07:47:57;3.83;;;1.63;;
8538;SDS011;4307;53.868;11.680;2024-02-21T07:50:25;6.80;;;2.43;;
8538;SDS011;4307;53.868;11.680;2024-02-21T07:52:52;7.63;;;1.97;;
8538;SDS011;4307;53.868;11.680;2024-02-21T07:55:18;3.57;;;1.60;;
8538;SDS011;4307;53.868;11.680;2024-02-21T07:57:45;4.30;;;2.33;;
8538;SDS011;4307;53.868;11.680;2024-02-21T08:00:12;6.10;;;2.60;;
8538;SDS011;4307;53.868;11.680;2024-02-21T08:02:44;6.13;;;2.53;;
8538;SDS011;4307;53.868;11.680;2024-02-21T08:05:11;6.47;;;3.17;;
8538;SDS011;4307;53.868;11.680;2024-02-21T08:07:39;5.17;;;2.50;;
8538;SDS011;4307;53.868;11.680;2024-02-21T08:10:07;4.70;;;2.27;;
8538;SDS011;4307;53.868;11.680;2024-02-21T08:12:34;4.03;;;2.10;;
8538;SDS011;4307;53.868;11.680;2024-02-21T08:15:01;2.73;;;1.90;;
8538;SDS011;4307;53.868;11.680;2024-02-21T08:17:29;2.90;;;2.50;;
8538;SDS011;4307;53.868;11.680;2024-02-21T08:19:56;5.30;;;2.40;;
8538;SDS011;4307;53.868;11.680;2024-02-21T08:22:22;6.10;;;2.60;;
8538;SDS011;4307;53.868;11.680;2024-02-21T08:24:50;4.53;;;2.30;;
8538;SDS011;4307;53.868;11.680;2024-02-21T08:27:17;5.90;;;2.70;;
8538;SDS011;4307;53.868;11.680;2024-02-21T08:29:44;2.37;;;2.17;;
8538;SDS011;4307;53.868;11.680;2024-02-21T08:32:11;4.40;;;2.30;;
8538;SDS011;4307;53.868;11.680;2024-02-21T08:34:37;4.07;;;1.90;;
8538;SDS011;4307;53.868;11.680;2024-02-21T08:37:04;3.70;;;2.73;;
8538;SDS011;4307;53.868;11.680;2024-02-21T08:39:31;5.20;;;1.87;;
8538;SDS011;4307;53.868;11.680;2024-02-21T08:41:58;2.27;;;1.97;;
8538;SDS011;4307;53.868;11.680;2024-02-21T08:44:27;2.10;;;1.90;;
8538;SDS011;4307;53.868;11.680;2024-02-21T08:46:54;1.90;;;1.37;;
8538;SDS011;4307;53.868;11.680;2024-02-21T08:49:21;4.10;;;2.00;;
8538;SDS011;4307;53.868;11.680;2024-02-21T08:51:47;4.07;;;2.60;;
8538;SDS011;4307;53.868;11.680;2024-02-21T08:54:14;3.07;;;2.07;;
8538;SDS011;4307;53.868;11.680;2024-02-21T08:56:42;5.20;;;2.80;;
8538;SDS011;4307;53.868;11.680;2024-02-21T08:59:10;3.00;;;1.90;;
8538;SDS011;4307;53.868;11.680;2024-02-21T09:01:37;3.33;;;2.20;;
8538;SDS011;4307;53.868;11.680;2024-02-21T09:04:03;2.90;;;2.30;;
8538;SDS011;4307;53.868;11.680;2024-02-21T09:06:30;2.37;;;2.17;;
8538;SDS011;4307;53.868;11.680;2024-02-21T09:09:01;3.70;;;1.93;;
8538;SDS011;4307;53.868;11.680;2024-02-21T09:11:28;2.93;;;2.37;;
8538;SDS011;4307;53.868;11.680;2024-02-21T09:13:55;2.60;;;2.40;;
8538;SDS011;4307;53.868;11.680;2024-02-21T09:16:23;3.63;;;2.10;;
8538;SDS011;4307;53.868;11.680;2024-02-21T09:18:49;3.20;;;2.90;;
8538;SDS011;4307;53.868;11.680;2024-02-21T09:21:17;2.97;;;2.33;;
8538;SDS011;4307;53.868;11.680;2024-02-21T09:23:44;3.13;;;2.40;;
8538;SDS011;4307;53.868;11.680;2024-02-21T09:26:11;3.10;;;2.33;;
8538;SDS011;4307;53.868;11.680;2024-02-21T09:28:41;3.80;;;2.40;;
8538;SDS011;4307;53.868;11.680;2024-02-21T09:31:08;3.03;;;2.43;;
8538;SDS011;4307;53.868;11.680;2024-02-21T09:33:36;3.00;;;2.20;;
8538;SDS011;4307;53.868;11.680;2024-02-21T09:36:03;5.73;;;2.40;;
8538;SDS011;4307;53.868;11.680;2024-02-21T09:38:31;2.60;;;2.40;;
8538;SDS011;4307;53.868;11.680;2024-02-21T09:40:58;2.57;;;2.37;;
8538;SDS011;4307;53.868;11.680;2024-02-21T09:43:26;5.83;;;2.00;;
8538;SDS011;4307;53.868;11.680;2024-02-21T09:45:54;2.80;;;2.03;;
8538;SDS011;4307;53.868;11.680;2024-02-21T09:48:30;6.00;;;2.13;;
8538;SDS011;4307;53.868;11.680;2024-02-21T09:51:07;5.27;;;2.60;;
8538;SDS011;4307;53.868;11.680;2024-02-21T09:53:37;2.10;;;1.90;;
8538;SDS011;4307;53.868;11.680;2024-02-21T09:56:05;2.57;;;1.97;;
8538;SDS011;4307;53.868;11.680;2024-02-21T09:58:34;4.27;;;2.50;;
8538;SDS011;4307;53.868;11.680;2024-02-21T10:01:00;8.27;;;2.30;;
8538;SDS011;4307;53.868;11.680;2024-02-21T10:03:29;2.30;;;2.10;;
8538;SDS011;4307;53.868;11.680;2024-02-21T10:05:57;1.97;;;1.73;;
8538;SDS011;4307;53.868;11.680;2024-02-21T10:08:25;2.80;;;2.27;;
8538;SDS011;4307;53.868;11.680;2024-02-21T10:10:52;5.97;;;2.23;;
8538;SDS011;4307;53.868;11.680;2024-02-21T10:13:23;3.33;;;2.33;;
8538;SDS011;4307;53.868;11.680;2024-02-21T10:16:00;5.17;;;2.07;;
8538;SDS011;4307;53.868;11.680;2024-02-21T10:18:30;3.97;;;2.57;;
8538;SDS011;4307;53.868;11.680;2024-02-21T10:21:01;4.40;;;2.13;;
8538;SDS011;4307;53.868;11.680;2024-02-21T10:23:28;3.77;;;2.03;;
8538;SDS011;4307;53.868;11.680;2024-02-21T10:26:04;3.20;;;2.17;;
8538;SDS011;4307;53.868;11.680;2024-02-21T10:28:31;3.13;;;2.03;;
8538;SDS011;4307;53.868;11.680;2024-02-21T10:30:57;3.63;;;2.00;;
8538;SDS011;4307;53.868;11.680;2024-02-21T10:33:24;3.90;;;1.60;;
8538;SDS011;4307;53.868;11.680;2024-02-21T10:35:52;6.27;;;2.17;;
8538;SDS011;4307;53.868;11.680;2024-02-21T10:38:21;5.03;;;1.60;;
8538;SDS011;4307;53.868;11.680;2024-02-21T10:40:48;5.67;;;1.80;;
8538;SDS011;4307;53.868;11.680;2024-02-21T10:43:17;5.23;;;1.87;;
8538;SDS011;4307;53.868;11.680;2024-02-21T10:45:45;4.57;;;1.37;;
8538;SDS011;4307;53.868;11.680;2024-02-21T10:48:15;2.87;;;1.83;;
8538;SDS011;4307;53.868;11.680;2024-02-21T10:50:53;2.77;;;1.33;;
8538;SDS011;4307;53.868;11.680;2024-02-21T10:53:29;4.70;;;2.10;;
8538;SDS011;4307;53.868;11.680;2024-02-21T10:56:11;3.97;;;1.70;;
8538;SDS011;4307;53.868;11.680;2024-02-21T10:58:52;6.27;;;2.13;;
8538;SDS011;4307;53.868;11.680;2024-02-21T11:01:20;5.67;;;1.90;;
8538;SDS011;4307;53.868;11.680;2024-02-21T11:03:48;7.77;;;1.60;;
8538;SDS011;4307;53.868;11.680;2024-02-21T11:06:17;3.53;;;1.67;;
8538;SDS011;4307;53.868;11.680;2024-02-21T11:08:46;5.73;;;2.07;;
8538;SDS011;4307;53.868;11.680;2024-02-21T11:11:14;4.43;;;1.83;;
8538;SDS011;4307;53.868;11.680;2024-02-21T11:13:43;4.83;;;1.73;;
8538;SDS011;4307;53.868;11.680;2024-02-21T11:16:11;6.03;;;2.20;;
8538;SDS011;4307;53.868;11.680;2024-02-21T11:18:47;6.93;;;2.83;;
8538;SDS011;4307;53.868;11.680;2024-02-21T11:21:13;7.57;;;2.00;;
8538;SDS011;4307;53.868;11.680;2024-02-21T11:23:40;4.97;;;2.30;;
8538;SDS011;4307;53.868;11.680;2024-02-21T11:26:08;4.80;;;2.20;;
8538;SDS011;4307;53.868;11.680;2024-02-21T11:28:36;7.53;;;2.30;;
8538;SDS011;4307;53.868;11.680;2024-02-21T11:31:06;7.73;;;2.70;;
8538;SDS011;4307;53.868;11.680;2024-02-21T11:33:34;5.07;;;2.27;;
8538;SDS011;4307;53.868;11.680;2024-02-21T11:36:01;4.77;;;1.87;;
8538;SDS011;4307;53.868;11.680;2024-02-21T11:38:28;5.20;;;2.30;;
8538;SDS011;4307;53.868;11.680;2024-02-21T11:40:55;3.57;;;2.00;;
8538;SDS011;4307;53.868;11.680;2024-02-21T11:43:24;4.93;;;2.00;;
8538;SDS011;4307;53.868;11.680;2024-02-21T11:45:58;5.10;;;2.30;;
8538;SDS011;4307;53.868;11.680;2024-02-21T11:48:26;4.13;;;2.10;;
8538;SDS011;4307;53.868;11.680;2024-02-21T11:50:53;4.90;;;1.90;;
8538;SDS011;4307;53.868;11.680;2024-02-21T11:53:19;5.70;;;2.00;;
8538;SDS011;4307;53.868;11.680;2024-02-21T11:55:46;5.40;;;1.80;;
8538;SDS011;4307;53.868;11.680;2024-02-21T11:58:13;4.13;;;2.23;;
8538;SDS011;4307;53.868;11.680;2024-02-21T12:00:42;7.97;;;1.93;;
8538;SDS011;4307;53.868;11.680;2024-02-21T12:03:08;8.00;;;2.17;;
8538;SDS011;4307;53.868;11.680;2024-02-21T12:05:35;4.90;;;2.03;;
8538;SDS011;4307;53.868;11.680;2024-02-21T12:08:02;4.60;;;1.37;;
8538;SDS011;4307;53.868;11.680;2024-02-21T12:10:30;5.30;;;1.80;;
8538;SDS011;4307;53.868;11.680;2024-02-21T12:13:04;5.37;;;1.80;;
8538;SDS011;4307;53.868;11.680;2024-02-21T12:15:32;4.40;;;2.00;;
8538;SDS011;4307;53.868;11.680;2024-02-21T12:18:00;3.10;;;1.53;;
8538;SDS011;4307;53.868;11.680;2024-02-21T12:20:26;4.17;;;1.87;;
8538;SDS011;4307;53.868;11.680;2024-02-21T12:22:53;3.37;;;1.80;;
8538;SDS011;4307;53.868;11.680;2024-02-21T12:25:20;2.23;;;1.73;;
8538;SDS011;4307;53.868;11.680;2024-02-21T12:27:48;4.10;;;1.50;;
8538;SDS011;4307;53.868;11.680;2024-02-21T12:30:15;2.57;;;1.77;;
8538;SDS011;4307;53.868;11.680;2024-02-21T12:32:42;1.70;;;1.60;;
8538;SDS011;4307;53.868;11.680;2024-02-21T12:35:10;3.17;;;2.30;;
8538;SDS011;4307;53.868;11.680;2024-02-21T12:37:36;3.37;;;2.10;;
8538;SDS011;4307;53.868;11.680;2024-02-21T12:40:04;3.10;;;1.80;;
8538;SDS011;4307;53.868;11.680;2024-02-21T12:42:32;1.70;;;1.60;;
8538;SDS011;4307;53.868;11.680;2024-02-21T12:44:59;4.80;;;2.60;;
8538;SDS011;4307;53.868;11.680;2024-02-21T12:47:25;4.07;;;2.50;;
8538;SDS011;4307;53.868;11.680;2024-02-21T12:49:52;3.20;;;2.40;;
8538;SDS011;4307;53.868;11.680;2024-02-21T12:52:20;3.30;;;2.50;;
8538;SDS011;4307;53.868;11.680;2024-02-21T12:54:47;2.60;;;2.40;;
8538;SDS011;4307;53.868;11.680;2024-02-21T12:57:15;2.43;;;2.23;;
8538;SDS011;4307;53.868;11.680;2024-02-21T12:59:42;2.87;;;2.23;;
8538;SDS011;4307;53.868;11.680;2024-02-21T13:02:08;3.50;;;2.23;;
8538;SDS011;4307;53.868;11.680;2024-02-21T13:04:35;3.43;;;2.30;;
8538;SDS011;4307;53.868;11.680;2024-02-21T13:07:05;4.90;;;2.40;;
8538;SDS011;4307;53.868;11.680;2024-02-21T13:09:33;3.83;;;2.90;;
8538;SDS011;4307;53.868;11.680;2024-02-21T13:12:00;4.93;;;3.23;;
8538;SDS011;4307;53.868;11.680;2024-02-21T13:14:27;5.20;;;4.10;;
8538;SDS011;4307;53.868;11.680;2024-02-21T13:16:54;7.20;;;4.90;;
8538;SDS011;4307;53.868;11.680;2024-02-21T13:19:20;5.87;;;4.50;;
8538;SDS011;4307;53.868;11.680;2024-02-21T13:21:47;6.47;;;4.30;;
8538;SDS011;4307;53.868;11.680;2024-02-21T13:24:14;11.40;;;6.17;;
8538;SDS011;4307;53.868;11.680;2024-02-21T13:26:42;9.10;;;5.97;;
8538;SDS011;4307;53.868;11.680;2024-02-21T13:29:08;10.60;;;5.67;;
8538;SDS011;4307;53.868;11.680;2024-02-21T13:31:35;8.40;;;5.93;;
8538;SDS011;4307;53.868;11.680;2024-02-21T13:34:02;9.10;;;6.43;;
8538;SDS011;4307;53.868;11.680;2024-02-21T13:36:29;9.20;;;6.47;;
8538;SDS011;4307;53.868;11.680;2024-02-21T13:38:55;8.17;;;6.17;;
8538;SDS011;4307;53.868;11.680;2024-02-21T13:41:22;13.13;;;7.47;;
8538;SDS011;4307;53.868;11.680;2024-02-21T13:43:50;10.10;;;6.97;;
8538;SDS011;4307;53.868;11.680;2024-02-21T13:46:16;9.67;;;6.43;;
8538;SDS011;4307;53.868;11.680;2024-02-21T13:48:44;12.50;;;6.37;;
8538;SDS011;4307;53.868;11.680;2024-02-21T13:51:10;12.07;;;5.93;;
8538;SDS011;4307;53.868;11.680;2024-02-21T13:53:37;8.53;;;5.93;;
8538;SDS011;4307;53.868;11.680;2024-02-21T13:56:04;10.30;;;6.07;;
8538;SDS011;4307;53.868;11.680;2024-02-21T13:58:31;11.90;;;6.07;;
8538;SDS011;4307;53.868;11.680;2024-02-21T14:00:59;9.97;;;7.40;;
8538;SDS011;4307;53.868;11.680;2024-02-21T14:03:25;19.90;;;9.23;;
8538;SDS011;4307;53.868;11.680;2024-02-21T14:05:52;17.93;;;10.60;;
8538;SDS011;4307;53.868;11.680;2024-02-21T14:08:19;15.27;;;9.60;;
8538;SDS011;4307;53.868;11.680;2024-02-21T14:10:47;12.73;;;6.97;;
8538;SDS011;4307;53.868;11.680;2024-02-21T14:13:13;27.03;;;15.20;;
8538;SDS011;4307;53.868;11.680;2024-02-21T14:15:43;15.87;;;10.57;;
8538;SDS011;4307;53.868;11.680;2024-02-21T14:18:12;18.57;;;12.67;;
8538;SDS011;4307;53.868;11.680;2024-02-21T14:20:39;17.43;;;10.30;;
8538;SDS011;4307;53.868;11.680;2024-02-21T14:23:05;55.60;;;28.30;;
8538;SDS011;4307;53.868;11.680;2024-02-21T14:25:32;12.87;;;7.70;;
8538;SDS011;4307;53.868;11.680;2024-02-21T14:27:59;22.63;;;13.27;;
8538;SDS011;4307;53.868;11.680;2024-02-21T14:30:26;15.33;;;9.37;;
8538;SDS011;4307;53.868;11.680;2024-02-21T14:32:52;12.37;;;7.83;;
8538;SDS011;4307;53.868;11.680;2024-02-21T14:35:20;17.90;;;9.67;;
8538;SDS011;4307;53.868;11.680;2024-02-21T14:37:47;10.50;;;6.37;;
8538;SDS011;4307;53.868;11.680;2024-02-21T14:40:14;9.83;;;7.10;;
8538;SDS011;4307;53.868;11.680;2024-02-21T14:42:41;13.93;;;7.77;;
8538;SDS011;4307;53.868;11.680;2024-02-21T14:45:08;10.20;;;6.47;;
8538;SDS011;4307;53.868;11.680;2024-02-21T14:47:35;11.70;;;7.07;;
8538;SDS011;4307;53.868;11.680;2024-02-21T14:50:02;9.73;;;7.07;;